createdAt,value
2023-04-03T00:00:35.329Z,12.15
2023-04-03T00:03:02.475Z,11.80
2023-04-03T00:05:29.296Z,15.38
2023-04-03T00:07:57.698Z,14.40
2023-04-03T00:10:24.606Z,12.63
2023-04-03T00:12:52.643Z,12.10
2023-04-03T00:15:19.530Z,12.65
2023-04-03T00:17:46.724Z,13.38
2023-04-03T00:20:13.637Z,14.20
2023-04-03T00:22:40.806Z,15.15
2023-04-03T00:25:09.240Z,13.98
2023-04-03T00:27:40.372Z,14.52
2023-04-03T00:30:09.705Z,11.68
2023-04-03T00:32:36.575Z,11.48
2023-04-03T00:35:05.233Z,14.13
2023-04-03T00:37:32.576Z,9.90
2023-04-03T00:39:59.825Z,14.07
2023-04-03T00:42:27.101Z,17.45
2023-04-03T00:44:57.478Z,17.70
2023-04-03T00:47:25.113Z,16.70
2023-04-03T00:49:53.788Z,14.52
2023-04-03T00:52:23.066Z,15.95
2023-04-03T00:54:51.040Z,15.70
2023-04-03T00:57:18.480Z,10.57
2023-04-03T00:59:51.245Z,10.43
2023-04-03T01:02:19.813Z,12.10
2023-04-03T01:04:48.323Z,9.75
2023-04-03T01:07:20.506Z,11.40
2023-04-03T01:09:48.990Z,8.68
2023-04-03T01:12:19.226Z,8.38
2023-04-03T01:14:49.276Z,12.13
2023-04-03T01:17:42.985Z,9.95
2023-04-03T01:20:13.117Z,8.40
2023-04-03T01:22:43.647Z,11.20
2023-04-03T01:25:11.082Z,13.57
2023-04-03T01:27:38.196Z,13.40
2023-04-03T01:30:05.829Z,13.32
2023-04-03T01:32:32.994Z,12.52
2023-04-03T01:35:00.345Z,12.13
2023-04-03T01:37:27.562Z,12.50
2023-04-03T01:39:54.711Z,13.80
2023-04-03T01:42:21.909Z,13.38
2023-04-03T01:44:49.078Z,11.93
2023-04-03T01:47:17.302Z,12.60
2023-04-03T01:49:44.576Z,12.05
2023-04-03T01:52:12.300Z,11.20
2023-04-03T01:54:39.465Z,12.70
2023-04-03T01:57:06.737Z,11.15
2023-04-03T01:59:33.923Z,11.45
2023-04-03T02:02:01.341Z,12.48
2023-04-03T02:04:29.050Z,7.70
2023-04-03T02:06:56.762Z,9.73
2023-04-03T02:09:23.992Z,9.57
2023-04-03T02:11:51.213Z,7.13
2023-04-03T02:14:19.469Z,8.68
2023-04-03T02:16:46.666Z,11.20
2023-04-03T02:19:13.899Z,6.43
2023-04-03T02:21:41.343Z,7.35
2023-04-03T02:24:08.676Z,10.70
2023-04-03T02:26:35.928Z,8.85
2023-04-03T02:29:03.692Z,12.73
2023-04-03T02:31:30.970Z,9.75
2023-04-03T02:33:58.192Z,11.63
2023-04-03T02:36:26.064Z,8.20
2023-04-03T02:38:53.378Z,9.38
2023-04-03T02:41:26.842Z,11.05
2023-04-03T02:43:54.071Z,8.35
2023-04-03T02:46:22.584Z,13.07
2023-04-03T02:48:49.726Z,9.05
2023-04-03T02:51:17.536Z,11.70
2023-04-03T02:53:44.793Z,15.50
2023-04-03T02:56:12.347Z,12.18
2023-04-03T02:58:39.495Z,9.68
2023-04-03T03:01:07.110Z,11.13
2023-04-03T03:03:34.289Z,13.63
2023-04-03T03:06:12.119Z,9.02
2023-04-03T03:08:39.646Z,11.35
2023-04-03T03:11:07.138Z,12.07
2023-04-03T03:13:35.217Z,10.07
2023-04-03T03:16:02.541Z,16.00
2023-04-03T03:18:29.781Z,9.65
2023-04-03T03:20:58.586Z,11.98
2023-04-03T03:23:26.594Z,10.32
2023-04-03T03:26:01.212Z,12.25
2023-04-03T03:28:28.796Z,16.35
2023-04-03T03:30:56.198Z,12.77
2023-04-03T03:33:23.449Z,12.75
2023-04-03T03:35:51.110Z,16.85
2023-04-03T03:38:18.257Z,8.52
2023-04-03T03:40:45.648Z,11.65
2023-04-03T03:43:12.917Z,12.07
2023-04-03T03:45:40.309Z,12.18
2023-04-03T03:48:07.534Z,11.55
2023-04-03T03:50:35.165Z,11.13
2023-04-03T03:53:02.616Z,11.82
2023-04-03T03:55:29.926Z,12.38
2023-04-03T03:57:57.183Z,15.30
2023-04-03T04:00:24.709Z,12.82
2023-04-03T04:02:51.946Z,12.32
2023-04-03T04:05:20.129Z,10.27
2023-04-03T04:07:48.692Z,7.88
2023-04-03T04:10:16.752Z,8.73
2023-04-03T04:12:43.658Z,10.60
2023-04-03T04:15:11.052Z,6.88
2023-04-03T04:17:37.990Z,9.63
2023-04-03T04:20:06.447Z,12.45
2023-04-03T04:22:33.161Z,8.55
2023-04-03T04:25:01.132Z,13.50
2023-04-03T04:27:27.986Z,11.88
2023-04-03T04:29:54.734Z,8.20
2023-04-03T04:32:21.467Z,6.25
2023-04-03T04:34:48.222Z,9.18
2023-04-03T04:37:15.020Z,9.63
2023-04-03T04:39:41.873Z,9.32
2023-04-03T04:42:15.567Z,7.40
2023-04-03T04:44:43.515Z,10.50
2023-04-03T04:47:10.380Z,7.80
2023-04-03T04:49:37.362Z,11.45
2023-04-03T04:52:04.159Z,11.35
2023-04-03T04:54:30.935Z,10.90
2023-04-03T04:56:57.815Z,8.20
2023-04-03T04:59:24.713Z,9.88
2023-04-03T05:01:51.525Z,8.88
2023-04-03T05:04:18.783Z,9.95
2023-04-03T05:06:45.820Z,11.10
2023-04-03T05:09:13.230Z,9.20
2023-04-03T05:11:39.938Z,9.73
2023-04-03T05:14:07.664Z,10.15
2023-04-03T05:16:34.720Z,10.75
2023-04-03T05:19:01.659Z,6.38
2023-04-03T05:21:33.572Z,9.18
2023-04-03T05:24:03.748Z,8.82
2023-04-03T05:26:31.728Z,10.63
2023-04-03T05:28:58.889Z,9.55
2023-04-03T05:31:25.790Z,10.75
2023-04-03T05:33:52.827Z,9.23
2023-04-03T05:36:19.781Z,9.85
2023-04-03T05:38:46.592Z,8.57
2023-04-03T05:41:13.758Z,12.02
2023-04-03T05:43:41.012Z,9.10
2023-04-03T05:46:14.313Z,6.93
2023-04-03T05:48:41.091Z,9.00
2023-04-03T05:51:14.755Z,11.27
2023-04-03T05:53:42.429Z,11.65
2023-04-03T05:56:09.221Z,9.18
2023-04-03T05:58:37.184Z,13.98
2023-04-03T06:01:04.191Z,8.70
2023-04-03T06:03:31.503Z,9.77
2023-04-03T06:05:58.353Z,11.70
2023-04-03T06:08:25.282Z,11.10
2023-04-03T06:10:52.642Z,6.00
2023-04-03T06:13:20.560Z,9.57
2023-04-03T06:15:47.787Z,12.73
2023-04-03T06:18:14.499Z,8.93
2023-04-03T06:20:41.480Z,8.85
2023-04-03T06:23:09.135Z,9.70
2023-04-03T06:25:36.347Z,8.07
2023-04-03T06:28:03.218Z,9.57
2023-04-03T06:30:30.136Z,11.70
2023-04-03T06:32:57.728Z,11.10
2023-04-03T06:35:24.803Z,11.02
2023-04-03T06:37:51.557Z,11.30
2023-04-03T06:40:22.704Z,6.75
2023-04-03T06:42:49.592Z,7.93
2023-04-03T06:45:16.836Z,12.02
2023-04-03T06:47:44.423Z,9.38
2023-04-03T06:50:15.103Z,9.27
2023-04-03T06:55:10.809Z,13.98
2023-04-03T06:57:38.208Z,14.75
2023-04-03T07:00:06.834Z,10.60
2023-04-03T07:02:33.820Z,10.80
2023-04-03T07:05:00.832Z,14.25
2023-04-03T07:07:27.647Z,9.02
2023-04-03T07:09:54.664Z,10.20
2023-04-03T07:12:21.722Z,9.77
2023-04-03T07:14:48.504Z,12.60
2023-04-03T07:17:15.592Z,14.05
2023-04-03T07:19:42.321Z,8.85
2023-04-03T07:22:09.708Z,10.70
2023-04-03T07:24:36.771Z,9.00
2023-04-03T07:27:04.896Z,7.85
2023-04-03T07:29:31.644Z,13.68
2023-04-03T07:32:00.935Z,11.32
2023-04-03T07:34:27.960Z,10.48
2023-04-03T07:36:54.824Z,10.82
2023-04-03T07:39:21.644Z,9.90
2023-04-03T07:41:48.393Z,11.10
2023-04-03T07:44:15.466Z,9.93
2023-04-03T07:46:43.382Z,11.30
2023-04-03T07:49:10.694Z,9.77
2023-04-03T07:51:37.769Z,9.93
2023-04-03T07:54:05.174Z,13.02
2023-04-03T07:56:32.807Z,12.43
2023-04-03T07:58:59.663Z,13.90
2023-04-03T08:01:27.457Z,12.80
2023-04-03T08:03:54.556Z,11.82
2023-04-03T08:06:29.307Z,13.18
2023-04-03T08:09:01.516Z,13.38
2023-04-03T08:11:28.302Z,10.32
2023-04-03T08:13:56.322Z,11.95
2023-04-03T08:16:26.762Z,9.95
2023-04-03T08:18:53.779Z,12.13
2023-04-03T08:21:21.105Z,10.68
2023-04-03T08:23:51.222Z,12.25
2023-04-03T08:26:21.917Z,12.75
2023-04-03T08:28:50.938Z,14.45
2023-04-03T08:31:20.869Z,12.50
2023-04-03T08:33:48.676Z,13.13
2023-04-03T08:36:26.294Z,14.00
2023-04-03T08:38:54.545Z,13.27
2023-04-03T08:41:32.801Z,10.15
2023-04-03T08:44:03.469Z,12.57
2023-04-03T08:49:27.915Z,10.25
2023-04-03T08:51:57.140Z,16.00
2023-04-03T08:54:38.667Z,12.18
2023-04-03T08:57:09.785Z,9.60
2023-04-03T08:59:39.384Z,10.63
2023-04-03T09:02:31.607Z,12.07
2023-04-03T09:04:59.059Z,12.00
2023-04-03T09:07:44.383Z,15.73
2023-04-03T09:10:14.797Z,12.38
2023-04-03T09:12:51.510Z,12.77
2023-04-03T09:15:37.865Z,9.75
2023-04-03T09:18:21.804Z,10.80
2023-04-03T09:21:07.202Z,16.92
2023-04-03T09:23:54.241Z,12.45
2023-04-03T09:26:27.632Z,11.98
2023-04-03T09:28:58.354Z,16.20
2023-04-03T09:33:59.412Z,13.75
2023-04-03T09:36:43.520Z,17.73
2023-04-03T09:39:26.438Z,11.45
2023-04-03T09:42:16.340Z,10.93
2023-04-03T09:44:43.216Z,12.43
2023-04-03T09:47:23.113Z,10.90
2023-04-03T09:49:49.854Z,15.93
2023-04-03T09:52:35.667Z,12.98
2023-04-03T09:55:29.606Z,14.65
2023-04-03T09:58:02.960Z,13.88
2023-04-03T10:00:35.012Z,10.00
2023-04-03T10:03:02.790Z,11.02
2023-04-03T10:05:39.839Z,10.23
2023-04-03T10:08:15.489Z,13.32
2023-04-03T10:10:48.080Z,12.55
2023-04-03T10:13:21.977Z,11.13
2023-04-03T10:16:02.676Z,12.27
2023-04-03T10:18:38.546Z,13.32
2023-04-03T10:21:26.517Z,12.35
2023-04-03T10:24:10.795Z,11.25
2023-04-03T10:27:04.861Z,11.13
2023-04-03T10:29:56.669Z,8.00
2023-04-03T10:32:32.611Z,11.77
2023-04-03T10:35:05.412Z,12.63
2023-04-03T10:37:44.322Z,9.00
2023-04-03T10:40:34.791Z,10.38
2023-04-03T10:43:18.845Z,11.70
2023-04-03T10:45:57.855Z,12.80
2023-04-03T10:48:34.875Z,14.25
2023-04-03T10:51:24.675Z,10.07
2023-04-03T10:54:14.444Z,18.50
2023-04-03T10:57:04.426Z,18.90
2023-04-03T10:59:56.695Z,9.05
2023-04-03T11:02:47.054Z,10.85
2023-04-03T11:05:27.425Z,9.55
2023-04-03T11:07:55.586Z,14.48
2023-04-03T11:10:31.518Z,11.90
2023-04-03T11:13:07.689Z,8.63
2023-04-03T11:15:34.530Z,13.05
2023-04-03T11:18:14.543Z,9.95
2023-04-03T11:20:45.551Z,12.73
2023-04-03T11:23:28.296Z,10.48
2023-04-03T11:26:10.849Z,10.13
2023-04-03T11:28:38.567Z,11.90
2023-04-03T11:31:43.137Z,15.05
2023-04-03T11:34:29.020Z,7.65
2023-04-03T11:37:01.729Z,15.35
2023-04-03T11:39:35.827Z,11.02
2023-04-03T11:42:20.799Z,8.52
2023-04-03T11:44:48.013Z,9.82
2023-04-03T11:47:49.231Z,10.70
2023-04-03T11:50:34.968Z,13.52
2023-04-03T11:53:07.488Z,12.15
2023-04-03T11:55:34.355Z,8.68
2023-04-03T11:58:04.215Z,9.57
2023-04-03T12:01:07.854Z,9.68
2023-04-03T12:03:42.876Z,14.90
2023-04-03T12:06:16.010Z,15.15
2023-04-03T12:08:43.319Z,10.57
2023-04-03T12:11:10.153Z,14.02
2023-04-03T12:13:39.685Z,14.77
2023-04-03T12:16:21.694Z,11.45
2023-04-03T12:19:04.469Z,11.93
2023-04-03T12:21:37.635Z,7.57
2023-04-03T12:24:04.625Z,14.25
2023-04-03T12:26:57.103Z,10.93
2023-04-03T12:29:43.899Z,9.65
2023-04-03T12:32:39.688Z,10.75
2023-04-03T12:35:15.235Z,16.35
2023-04-03T12:37:51.860Z,8.93
2023-04-03T12:40:32.876Z,7.07
2023-04-03T12:43:30.421Z,8.20
2023-04-03T12:46:13.640Z,12.30
2023-04-03T12:48:52.836Z,8.90
2023-04-03T12:51:30.204Z,10.13
2023-04-03T12:54:03.568Z,8.45
2023-04-03T12:56:33.694Z,7.28
2023-04-03T12:59:23.521Z,6.80
2023-04-03T13:01:59.109Z,6.82
2023-04-03T13:04:27.561Z,11.73
2023-04-03T13:06:54.437Z,9.50
2023-04-03T13:09:26.445Z,11.30
2023-04-03T13:12:13.462Z,7.40
2023-04-03T13:14:42.071Z,9.02
2023-04-03T13:17:16.469Z,8.77
2023-04-03T13:19:46.885Z,11.85
2023-04-03T13:22:31.699Z,6.50
2023-04-03T13:25:02.840Z,12.75
2023-04-03T13:27:32.204Z,8.65
2023-04-03T13:30:01.714Z,9.20
2023-04-03T13:32:32.317Z,12.32
2023-04-03T13:37:38.705Z,10.90
2023-04-03T13:40:08.297Z,9.45
2023-04-03T13:42:37.825Z,9.02
2023-04-03T13:45:30.120Z,9.95
2023-04-03T13:48:23.674Z,11.15
2023-04-03T13:51:01.754Z,9.75
2023-04-03T13:53:31.857Z,8.07
2023-04-03T13:56:09.278Z,12.27
2023-04-03T13:58:38.797Z,9.60
2023-04-03T14:01:08.525Z,12.10
2023-04-03T14:03:42.111Z,12.25
2023-04-03T14:06:14.182Z,10.23
2023-04-03T14:08:43.812Z,7.90
2023-04-03T14:11:32.004Z,8.30
2023-04-03T14:14:15.621Z,6.30
2023-04-03T14:16:45.361Z,17.65
2023-04-03T14:19:22.404Z,10.57
2023-04-03T14:21:49.741Z,13.07
2023-04-03T14:24:17.803Z,8.60
2023-04-03T14:26:45.135Z,15.07
2023-04-03T14:29:14.051Z,6.75
2023-04-03T14:31:43.703Z,9.27
2023-04-03T14:34:12.641Z,11.20
2023-04-03T14:36:40.563Z,10.20
2023-04-03T14:39:12.698Z,14.57
2023-04-03T14:41:39.462Z,8.27
2023-04-03T14:44:06.281Z,12.75
2023-04-03T14:46:55.061Z,11.48
2023-04-03T14:49:27.155Z,10.35
2023-04-03T14:54:26.625Z,8.73
2023-04-03T14:56:58.962Z,8.23
2023-04-03T14:59:27.236Z,6.82
2023-04-03T15:01:53.997Z,9.52
2023-04-03T15:04:21.973Z,20.88
2023-04-03T15:06:49.907Z,9.93
2023-04-03T15:09:26.414Z,15.80
2023-04-03T15:11:54.801Z,23.50
2023-04-03T15:14:35.326Z,22.27
2023-04-03T15:17:06.892Z,49.95
2023-04-03T15:19:43.016Z,20.40
2023-04-03T15:22:18.470Z,11.38
2023-04-03T15:24:45.413Z,13.88
2023-04-03T15:27:13.533Z,13.40
2023-04-03T15:29:42.157Z,13.02
2023-04-03T15:32:10.163Z,11.30
2023-04-03T15:34:37.774Z,13.95
2023-04-03T15:37:04.641Z,11.75
2023-04-03T15:39:31.455Z,12.52
2023-04-03T15:42:00.897Z,12.82
2023-04-03T15:44:27.777Z,15.65
2023-04-03T15:46:54.626Z,15.20
2023-04-03T15:49:22.539Z,21.95
2023-04-03T15:51:49.358Z,12.00
2023-04-03T15:54:17.162Z,19.98
2023-04-03T15:56:43.867Z,17.85
2023-04-03T15:59:11.549Z,16.60
2023-04-03T16:01:41.660Z,18.17
2023-04-03T16:04:10.129Z,16.55
2023-04-03T16:06:38.079Z,24.08
2023-04-03T16:09:05.568Z,30.95
2023-04-03T16:11:32.570Z,30.67
2023-04-03T16:13:59.527Z,22.30
2023-04-03T16:16:28.287Z,20.27
2023-04-03T16:18:56.571Z,16.00
2023-04-03T16:21:24.817Z,17.55
2023-04-03T16:23:52.070Z,12.95
2023-04-03T16:26:19.157Z,10.55
2023-04-03T16:28:46.063Z,12.77
2023-04-03T16:31:13.108Z,9.90
2023-04-03T16:33:39.900Z,9.07
2023-04-03T16:36:07.009Z,15.60
2023-04-03T16:38:34.306Z,20.50
2023-04-03T16:41:05.445Z,11.05
2023-04-03T16:43:36.610Z,17.33
2023-04-03T16:46:03.850Z,17.42
2023-04-03T16:48:31.419Z,14.68
2023-04-03T16:50:58.397Z,10.30
2023-04-03T16:53:30.416Z,18.08
2023-04-03T16:55:59.582Z,19.45
2023-04-03T16:58:26.343Z,32.28
2023-04-03T17:00:54.934Z,24.35
2023-04-03T17:03:26.098Z,29.38
2023-04-03T17:05:53.211Z,23.15
2023-04-03T17:08:20.365Z,21.73
2023-04-03T17:10:48.745Z,24.70
2023-04-03T17:13:16.658Z,14.93
2023-04-03T17:15:44.506Z,18.10
2023-04-03T17:18:11.299Z,22.27
2023-04-03T17:20:39.717Z,23.33
2023-04-03T17:23:11.969Z,23.20
2023-04-03T17:25:38.799Z,26.95
2023-04-03T17:28:06.077Z,20.42
2023-04-03T17:30:32.874Z,22.02
2023-04-03T17:33:02.200Z,21.27
2023-04-03T17:35:31.083Z,18.52
2023-04-03T17:37:59.207Z,18.45
2023-04-03T17:40:27.583Z,21.88
2023-04-03T17:42:54.384Z,17.00
2023-04-03T17:45:22.326Z,14.25
2023-04-03T17:47:51.168Z,20.90
2023-04-03T17:50:19.113Z,17.02
2023-04-03T17:52:45.860Z,14.98
2023-04-03T17:55:13.566Z,23.20
2023-04-03T17:57:42.620Z,15.73
2023-04-03T18:00:10.148Z,17.13
2023-04-03T18:02:37.088Z,16.77
2023-04-03T18:05:04.579Z,14.55
2023-04-03T18:07:31.583Z,17.20
2023-04-03T18:09:59.342Z,20.67
2023-04-03T18:12:27.626Z,22.70
2023-04-03T18:14:55.650Z,22.52
2023-04-03T18:17:22.452Z,17.63
2023-04-03T18:19:51.566Z,17.30
2023-04-03T18:22:21.035Z,18.25
2023-04-03T18:24:50.411Z,18.10
2023-04-03T18:27:19.886Z,18.63
2023-04-03T18:29:50.962Z,20.77
2023-04-03T18:32:20.548Z,24.58
2023-04-03T18:34:47.385Z,22.50
2023-04-03T18:37:15.394Z,20.17
2023-04-03T18:39:42.666Z,23.55
2023-04-03T18:42:21.525Z,26.08
2023-04-03T18:45:27.916Z,20.40
2023-04-03T18:47:43.756Z,28.77
2023-04-03T18:50:11.283Z,22.83
2023-04-03T18:52:37.977Z,26.33
2023-04-03T18:55:05.445Z,27.98
2023-04-03T18:57:32.294Z,37.53
2023-04-03T18:59:59.016Z,21.45
2023-04-03T19:02:26.908Z,27.52
2023-04-03T19:04:55.053Z,30.20
2023-04-03T19:07:21.860Z,48.30
2023-04-03T19:09:48.873Z,40.92
2023-04-03T19:12:15.589Z,69.10
2023-04-03T19:14:42.259Z,40.67
2023-04-03T19:17:09.372Z,31.40
2023-04-03T19:19:36.375Z,30.35
2023-04-03T19:22:03.205Z,31.52
2023-04-03T19:24:30.103Z,29.17
2023-04-03T19:26:57.345Z,31.85
2023-04-03T19:29:24.089Z,31.42
2023-04-03T19:31:51.514Z,30.58
2023-04-03T19:34:29.264Z,30.20
2023-04-03T19:37:02.846Z,31.35
2023-04-03T19:43:00.643Z,27.20
2023-04-03T19:45:32.503Z,24.35
2023-04-03T19:48:08.206Z,21.90
2023-04-03T19:50:49.015Z,19.70
2023-04-03T20:02:22.198Z,26.35
2023-04-03T20:04:49.110Z,27.90
2023-04-03T20:07:16.173Z,22.90
2023-04-03T20:09:43.198Z,27.73
2023-04-03T20:12:10.785Z,24.75
2023-04-03T20:14:39.581Z,26.17
2023-04-03T20:17:07.832Z,22.23
2023-04-03T20:19:35.441Z,21.60
2023-04-03T20:22:02.284Z,24.83
2023-04-03T20:24:31.424Z,23.33
2023-04-03T20:26:58.690Z,23.50
2023-04-03T20:29:29.559Z,21.88
2023-04-03T20:31:56.857Z,19.95
2023-04-03T20:34:24.159Z,24.27
2023-04-03T20:36:52.065Z,25.67
2023-04-03T20:39:21.004Z,22.45
2023-04-03T20:41:48.156Z,30.80
2023-04-03T20:44:15.518Z,24.33
2023-04-03T20:49:16.435Z,25.13
2023-04-03T20:51:44.000Z,22.05
2023-04-03T20:54:10.734Z,20.77
2023-04-03T20:56:38.436Z,21.95
2023-04-03T20:59:06.756Z,22.15
2023-04-03T21:01:34.372Z,24.63
2023-04-03T21:04:12.298Z,20.55
2023-04-03T21:07:18.356Z,18.67
2023-04-03T21:10:24.026Z,20.33
2023-04-03T21:13:28.744Z,20.13
2023-04-03T21:15:55.730Z,25.00
2023-04-03T21:18:39.927Z,22.23
2023-04-03T21:21:08.971Z,21.45
2023-04-03T21:23:35.899Z,22.08
2023-04-03T21:26:04.253Z,18.20
2023-04-03T21:28:31.928Z,23.20
2023-04-03T21:31:00.396Z,26.98
2023-04-03T21:33:28.250Z,28.63
2023-04-03T21:35:58.573Z,29.58
2023-04-03T21:39:04.276Z,34.35
2023-04-03T21:41:32.947Z,26.55
2023-04-03T21:44:00.141Z,27.05
2023-04-03T21:46:27.632Z,30.13
2023-04-03T21:48:56.040Z,35.40
2023-04-03T21:51:23.076Z,31.23
2023-04-03T21:53:53.811Z,38.58
2023-04-03T21:56:24.939Z,56.42
2023-04-03T21:58:53.103Z,46.75
2023-04-03T22:01:20.957Z,48.55
2023-04-03T22:03:47.917Z,37.60
2023-04-03T22:06:20.975Z,42.58
2023-04-03T22:08:48.027Z,25.02
2023-04-03T22:11:15.756Z,51.92
2023-04-03T22:13:44.070Z,32.75
2023-04-03T22:16:14.403Z,25.88
2023-04-03T22:18:41.490Z,29.92
2023-04-03T22:21:08.910Z,28.52
2023-04-03T22:24:38.504Z,20.17
2023-04-03T22:40:28.722Z,27.92
2023-04-03T22:43:31.570Z,18.02
2023-04-03T22:59:21.316Z,18.75
2023-04-03T23:05:31.837Z,25.63
2023-04-03T23:14:36.761Z,19.98
2023-04-03T23:18:07.491Z,26.48
2023-04-03T23:21:02.150Z,19.88
2023-04-03T23:27:02.364Z,24.17
2023-04-03T23:32:55.809Z,15.85
2023-04-03T23:38:38.684Z,17.17
2023-04-03T23:44:55.489Z,19.40
2023-04-03T23:48:14.354Z,19.20
2023-04-03T23:54:41.153Z,19.77
2023-04-03T23:57:47.007Z,21.10
